Coeburn, VA

6:27 AM EDT on May 23, 2015 (GMT -0400)
Tazewell County | | Change Station
CLOSE
Current Station
Airport
Location: Richlands,
Elevation: 2651 ft
Nearby Weather Stations

Elev 2651 ft 37.06 °N, 81.80 °W | Updated 12 minutes ago

Clear
Clear
47 °F
Feels Like 47 °F
N
4
Wind Variable Wind from SSE

Today
High -- | Low -- °F
--% Chance of Precip.
Yesterday
High -- | Low -- °F
Precip. -- in
6:16 AM 8:37 PM
Waxing Crescent, 29% visible
Pressure 30.39 in
Visibility 10.0 miles
Clouds Clear
Dew Point 26 °F
Humidity 43%
Rainfall 0.00 in
Snow Depth Not available.
UV 0 out of 12
Pollen 7.30 out of 12
Air Quality Not available.
Flu Activity No Activity
METAR KJFZ 231015Z AUTO 15003KT 10SM CLR 08/M04 A3039 RMK AO2 T00831036

More Conditions Fewer Conditions

Pressure 30.39 in
Visibility 10.0 miles
Clouds Clear
Dew Point 26 °F
Humidity 43%
Rainfall 0.00 in
Snow Depth Not available.
UV 0 out of 12
Pollen 7.30 out of 12
Air Quality Not available.
Flu Activity No Activity
METAR KJFZ 231015Z AUTO 15003KT 10SM CLR 08/M04 A3039 RMK AO2 T00831036

More Conditions Fewer Conditions

10-Day Weather Forecast

Almanac

Astronomy

May. 23, 2015 Rise Set
Actual Time
Civil Twilight
Nautical Twilight
Astronomical Twilight
Moon
Length of Visible Light
Length of Day
Tomorrow will be .
, % of the Moon is Illuminated

Today's Extremes

State Highs State Lows

Community

WunderPhotos

Upload Photos

1,823,408 photos uploaded!

WunderBlogs® & News

Nearby

Air Quality

  Air Quality AQ Index Pollutant
Not available.

Snow Depth

Station Depth Elevation

Earthquake Activity

City Distance Mag. Time & Date
Minimum magnitude displayed is 2.5.

Coastal Water Temperatures

Place Temperature

Stations

Nearby Weather Stations

Station Location Temp. Windchill Dew Point Humidity Wind Precip. Elev Updated Type